Station info - map view · info · telemetry · weather · raw · status · beacons · messages · bulletins · browse · moving · my account
Callsign, ship name or locator: Clear       
It is possible to search using wildcards (*?) after a prefix. Example: OH*
APRS station DL8PQ-13 - show graphs
Map loading...
Comment: 13.5V 21C
Last status: on Tour with ALL IN ONE R2 TRX 5W OT+
Location: 51°04.65' N 13°00.73' E - locator JO61MB18LO - show map - static map
1.9 miles North bearing 354° from Kriebstein, Direktionsbezirk Chemnitz, Saxony, Germany [?]
5.8 miles Northwest bearing 336° from Rossau, Direktionsbezirk Chemnitz, Saxony, Germany
33.1 miles Southeast bearing 123° from Leipzig, Direktionsbezirk Leipzig, Saxony, Germany
92.1 miles Northwest bearing 318° from Prague, Hlavní Mesto Praha, Czech Republic
Last position: 2019-10-02 02:59:15 EDT (13d 19h1m ago)
2019-10-02 08:59:15 CEST local time at Kriebstein, Germany [?]
Altitude: 855 ft
Course: 296°
Speed: 0 MPH
Device: Argent Data Systems: OpenTracker (tracker)
Last path: DL8PQ-13>APOTC1 via DM0MW,WIDE1*,WIDE2-2,qAR,DO7DOC-10 (good)
Positions stored: 26508
Stations near current position of DL8PQ-13 - show more
callsign distance last heard - EDT      callsign distance last heard - EDT
DG0LHZ-51.1 miles 265°2019-10-09 01:02:30 DO1CJ4.2 miles 178°2019-10-15 21:54:07
DO1CJ-75.0 miles 186°2019-09-16 11:27:19 DL1JBO-95.0 miles 187°2019-10-14 10:38:40
DL1JBO5.0 miles 187°2019-10-15 21:57:04 DL3JIN-96.1 miles 196°2019-10-15 09:35:46
DL1JBE6.2 miles 200°2019-09-21 03:49:59 DL1JBE-96.2 miles 200°2019-10-15 11:45:28
DM0MW6.5 miles 196°2019-10-15 21:54:51 DL1HMM-96.5 miles 186°2019-10-15 09:40:05
DL1RUN-96.5 miles 195°2019-09-29 08:27:47 DO1MIT-96.6 miles 189°2019-10-08 05:15:55
DE2PJM-76.8 miles 194°2019-10-14 12:32:35 DM1TS-97.2 miles 92°2019-10-02 11:27:51
N838MH8.1 miles 272°2019-10-09 07:48:50 R34311128.1 miles 74°2019-10-13 10:12:53
R3431112_8.5 miles 70°2019-10-13 10:13:22 DL1RUN-118.9 miles 223°2019-10-07 11:37:31
DG0ERS-49.6 miles 174°2019-10-11 10:15:19 DL1RUN-89.9 miles 224°2019-10-03 05:23:34
Stations which heard DL8PQ-13 directly on radio –
callsign pkts first heard - EDT last heard longest (tx => rx) longest at - EDT
DB0YQ 16 2019-10-01 09:50:47 2019-10-01 10:38:50 JN69BJ > JN69CQ 19.8 miles 10° 2019-10-01 09:50:47
IR3BT 34 2019-10-01 02:04:42 2019-10-01 03:18:05 JN56QL > JN56MD 28.7 miles 212° 2019-10-01 03:18:05
OE2XHR-11 1 2019-10-01 07:27:19 2019-10-01 07:27:19 JN57XT > JN67MK 58.8 miles 118° 2019-10-01 07:27:19
IR3AS 3 2019-10-01 02:21:26 2019-10-01 02:41:05 JN56ND > JN56QB 13.4 miles 118° 2019-10-01 02:41:05
IK3XTM 24 2019-10-01 00:53:57 2019-10-01 01:45:40 JN56GH > JN55LP 51.6 miles 160° 2019-10-01 01:14:11
DB0REN 3 2019-10-01 11:13:19 2019-10-01 11:37:46 JO60EO > JO50RK 41.9 miles 255° 2019-10-01 11:37:46
IN3RSV 19 2019-10-01 01:57:34 2019-10-01 02:50:50 JN56ND > JN55NV 16.5 miles 171° 2019-10-01 02:50:50
DB0LP 1 2019-10-01 09:38:38 2019-10-01 09:38:38 JN69BE > JN59UD 19.1 miles 260° 2019-10-01 09:38:38
DM0MW 18 2019-10-01 12:08:38 2019-10-02 02:59:15 JO60LV > JO60LX 7.2 miles 14° 2019-10-01 12:08:38
DB0WBE 3 2019-10-01 12:27:20 2019-10-02 01:50:58 JO61NA > JO61SL 36.1 miles 30° 2019-10-01 12:27:20
DB0FBG 13 2019-10-01 12:17:55 2019-10-01 18:08:16 JO61MB > JO60QW 17.8 miles 125° 2019-10-01 18:08:16
DL3NDS 1 2019-10-01 10:49:03 2019-10-01 10:49:03 JO60BA > JO60AB 4.6 miles 281° 2019-10-01 10:49:03
IQ3VQ 1 2019-10-01 01:43:54 2019-10-01 01:43:54 JN55KP > JN55MK 16.5 miles 143° 2019-10-01 01:43:54
IR3UHI 10 2019-10-01 03:49:53 2019-10-01 03:58:12 JN56TQ > JN56UU 12.5 miles 14° 2019-10-01 03:49:53
IR3UGD 12 2019-10-01 04:06:16 2019-10-01 04:27:30 JN57SA > JN56PU 15.3 miles 219° 2019-10-01 04:27:30
OE5XBL-10 7 2019-10-01 06:04:51 2019-10-01 07:12:56 JN67BR > JN68PC 61.3 miles 65° 2019-10-01 06:12:49
DB0MAK 15 2019-10-01 10:40:45 2019-10-01 11:16:01 JO50XJ > JO60BA 28.0 miles 166° 2019-10-01 11:16:01
DB0PM 5 2019-10-01 07:29:48 2019-10-01 08:11:05 JN58UE > JN57WS 31.9 miles 164° 2019-10-01 08:11:05
DB0POB 17 2019-10-01 08:35:09 2019-10-01 09:05:43 JN68AU > JN58QP 32.6 miles 244° 2019-10-01 09:05:43
IR2S 13 2019-09-30 20:11:27 2019-10-01 01:09:46 JN56HG > JN55DQ 45.1 miles 204° 2019-10-01 00:44:09
DB0ZWI-10 5 2019-10-01 11:43:41 2019-10-01 11:46:51 JO60GQ > JO60FR 7.1 miles 308° 2019-10-01 11:46:51
DG1JLA-3 14 2019-10-01 12:09:43 2019-10-01 12:30:06 JO61MB > JO60LV 11.2 miles 201° 2019-10-01 12:30:06
DO4DR-10 2 2019-10-01 11:54:07 2019-10-01 11:55:10 JO60IQ > JO60GT 12.3 miles 314° 2019-10-01 11:54:07
OE7XGR-10 3 2019-10-01 04:32:27 2019-10-01 04:47:33 JN57QE > JN57UB 15.5 miles 122° 2019-10-01 04:47:33
DB0RGB 4 2019-10-01 09:23:02 2019-10-01 09:30:11 JN69BB > JN69BA 4.5 miles 179° 2019-10-01 09:30:11
OE7XGR 4 2019-10-01 04:32:27 2019-10-01 04:47:34 JN57QE > JN57UB 15.5 miles 122° 2019-10-01 04:47:34
OE7XXR-10 11 2019-10-01 05:27:33 2019-10-01 05:39:21 JN67AL > JN57VL 9.6 miles 263° 2019-10-01 05:39:21
IQ3VO 89 2019-09-30 20:00:09 2019-10-01 02:05:02 JN54IS > JN55NN 61.1 miles 21° 2019-10-01 00:02:11
DB0MUC 3 2019-10-01 08:09:25 2019-10-01 08:17:43 JN58TG > JN58SD 8.5 miles 208° 2019-10-01 08:17:43
IR3EE-10 1 2019-10-01 03:05:48 2019-10-01 03:05:48 JN56PI > JN56SF 12.9 miles 125° 2019-10-01 03:05:48
OE7XEI-10 20 2019-10-01 04:33:06 2019-10-01 05:05:32 JN57RB > JN57SG 14.9 miles 7° 2019-10-01 04:33:06
DB0ED 2 2019-10-01 08:27:14 2019-10-01 08:33:46 JN58TM > JN68AG 25.1 miles 126° 2019-10-01 08:33:46
IR3UDX 4 2019-10-01 02:02:16 2019-10-01 02:08:54 JN55NX > JN55MV 5.7 miles 216° 2019-10-01 02:08:54
DO7DOC-10 2 2019-10-01 11:43:21 2019-10-01 12:00:04 JO60FP > JO60IV 19.4 miles 31° 2019-10-01 11:43:21
DB0FGB 16 2019-10-01 10:35:40 2019-10-01 11:09:47 JO60AH > JO50WB 20.3 miles 202° 2019-10-01 11:09:47
DB0EL 32 2019-10-01 07:47:53 2019-10-01 08:30:28 JN58TK > JN58SE 19.1 miles 185° 2019-10-01 08:30:28
DB0HOB-10 49 2019-10-01 05:54:14 2019-10-01 08:07:10 JN58UE > JN67DR 39.0 miles 141° 2019-10-01 08:07:10
DB0FZ-1 2 2019-10-01 07:38:51 2019-10-01 07:39:54 JN57UV > JN57UV 2.0 miles 203° 2019-10-01 07:39:54
IR2BP 37 2019-09-30 20:01:00 2019-10-01 01:35:19 JN56HH > JN55DN 56.0 miles 195° 2019-10-01 01:14:52
IQ3ZF 82 2019-09-30 20:00:10 2019-10-01 01:45:43 JN56GH > JN55KL 60.3 miles 166° 2019-10-01 01:14:19
IR2DD 33 2019-10-01 00:56:04 2019-10-01 01:41:48 JN56GH > JN55GL 59.6 miles 182° 2019-10-01 01:14:10
IR3UDY 8 2019-10-01 01:48:27 2019-10-01 02:03:39 JN55MV > JN55LS 10.7 miles 207° 2019-10-01 02:03:39
DD5JFK-1 1 2019-10-01 07:52:54 2019-10-01 07:52:54 JN58UB > JN58TD 6.1 miles 324° 2019-10-01 07:52:54
IR4UBX 1 2019-10-01 01:35:27 2019-10-01 01:35:27 JN55JN > JN54JK 78.3 miles 179° 2019-10-01 01:35:27

Only position packets which were originated by the station are shown here. The range statistics show some extra long hops, because some digipeaters do not correctly add themselves to the digipeater path. Please check the raw packets.
About this site
This page shows real-time information collected from the Automatic Position Reporting System Internet network (APRS-IS). APRS is used by amateur (ham) radio operators to transmit real-time position information, weather data, telemetry and messages over the radio. A vehicle equipped with a GPS receiver, a VHF transmitter or HF transceiver and a small computer device called a tracker transmits it's location, speed and course in a small data packet, which is then received by a nearby iGate receiving site which forwards the packet on the Internet. Systems connected to the Internet can send information on the APRS-IS without a radio transmitter, or collect and display information transmitted anywhere in the world.
User guide · FAQ · Blog · Discussion group · Linking to aprs.fi · AIS sites · Service status · Database statistics · Advertising on aprs.fi · Technical details · API · Change log · Planned changes · Credits and thanks · Terms Of Service · iPhone/iPad APRS